sensor_id;sensor_type;location;lat;lon;timestamp;P1;durP1;ratioP1;P2;durP2;ratioP2
54157;SDS011;40065;49.894;10.358;2024-02-21T00:02:56;15.48;;;4.57;;
54157;SDS011;40065;49.894;10.358;2024-02-21T00:08:01;13.52;;;4.35;;
54157;SDS011;40065;49.894;10.358;2024-02-21T00:13:04;14.90;;;3.97;;
54157;SDS011;40065;49.894;10.358;2024-02-21T00:18:07;16.35;;;4.53;;
54157;SDS011;40065;49.894;10.358;2024-02-21T00:23:09;12.20;;;4.60;;
54157;SDS011;40065;49.894;10.358;2024-02-21T00:28:11;16.17;;;4.38;;
54157;SDS011;40065;49.894;10.358;2024-02-21T00:33:13;12.52;;;4.35;;
54157;SDS011;40065;49.894;10.358;2024-02-21T00:38:15;13.77;;;4.40;;
54157;SDS011;40065;49.894;10.358;2024-02-21T00:43:17;12.60;;;5.05;;
54157;SDS011;40065;49.894;10.358;2024-02-21T00:48:19;14.38;;;4.40;;
54157;SDS011;40065;49.894;10.358;2024-02-21T00:53:21;17.83;;;4.75;;
54157;SDS011;40065;49.894;10.358;2024-02-21T00:58:23;11.00;;;4.38;;
54157;SDS011;40065;49.894;10.358;2024-02-21T01:03:25;12.50;;;4.22;;
54157;SDS011;40065;49.894;10.358;2024-02-21T01:08:27;19.17;;;4.70;;
54157;SDS011;40065;49.894;10.358;2024-02-21T01:13:28;18.48;;;5.10;;
54157;SDS011;40065;49.894;10.358;2024-02-21T01:18:30;15.32;;;4.43;;
54157;SDS011;40065;49.894;10.358;2024-02-21T01:23:33;12.20;;;4.10;;
54157;SDS011;40065;49.894;10.358;2024-02-21T01:28:35;15.75;;;4.35;;
54157;SDS011;40065;49.894;10.358;2024-02-21T01:33:38;13.93;;;4.70;;
54157;SDS011;40065;49.894;10.358;2024-02-21T01:38:40;14.23;;;4.68;;
54157;SDS011;40065;49.894;10.358;2024-02-21T01:43:42;13.55;;;4.43;;
54157;SDS011;40065;49.894;10.358;2024-02-21T01:48:44;17.55;;;5.00;;
54157;SDS011;40065;49.894;10.358;2024-02-21T01:53:47;13.32;;;3.92;;
54157;SDS011;40065;49.894;10.358;2024-02-21T01:58:51;13.00;;;4.65;;
54157;SDS011;40065;49.894;10.358;2024-02-21T02:03:53;15.35;;;4.88;;
54157;SDS011;40065;49.894;10.358;2024-02-21T02:08:56;16.92;;;4.85;;
54157;SDS011;40065;49.894;10.358;2024-02-21T02:13:58;20.70;;;4.82;;
54157;SDS011;40065;49.894;10.358;2024-02-21T02:19:00;13.15;;;4.43;;
54157;SDS011;40065;49.894;10.358;2024-02-21T02:24:02;14.20;;;4.55;;
54157;SDS011;40065;49.894;10.358;2024-02-21T02:29:06;16.50;;;5.27;;
54157;SDS011;40065;49.894;10.358;2024-02-21T02:34:08;13.75;;;5.35;;
54157;SDS011;40065;49.894;10.358;2024-02-21T02:39:10;20.90;;;6.13;;
54157;SDS011;40065;49.894;10.358;2024-02-21T02:44:12;18.00;;;5.90;;
54157;SDS011;40065;49.894;10.358;2024-02-21T02:49:14;22.77;;;6.10;;
54157;SDS011;40065;49.894;10.358;2024-02-21T02:54:16;19.52;;;5.97;;
54157;SDS011;40065;49.894;10.358;2024-02-21T02:59:18;21.25;;;6.20;;
54157;SDS011;40065;49.894;10.358;2024-02-21T03:04:20;20.75;;;5.70;;
54157;SDS011;40065;49.894;10.358;2024-02-21T03:09:22;24.25;;;7.22;;
54157;SDS011;40065;49.894;10.358;2024-02-21T03:14:24;19.02;;;6.20;;
54157;SDS011;40065;49.894;10.358;2024-02-21T03:19:26;19.42;;;6.45;;
54157;SDS011;40065;49.894;10.358;2024-02-21T03:24:28;22.80;;;6.55;;
54157;SDS011;40065;49.894;10.358;2024-02-21T03:29:32;19.05;;;6.35;;
54157;SDS011;40065;49.894;10.358;2024-02-21T03:34:34;16.90;;;6.35;;
54157;SDS011;40065;49.894;10.358;2024-02-21T03:39:36;24.52;;;6.95;;
54157;SDS011;40065;49.894;10.358;2024-02-21T03:44:38;20.55;;;7.30;;
54157;SDS011;40065;49.894;10.358;2024-02-21T03:49:40;24.42;;;6.70;;
54157;SDS011;40065;49.894;10.358;2024-02-21T03:54:42;24.85;;;7.03;;
54157;SDS011;40065;49.894;10.358;2024-02-21T03:59:44;21.30;;;6.82;;
54157;SDS011;40065;49.894;10.358;2024-02-21T04:04:45;20.35;;;7.18;;
54157;SDS011;40065;49.894;10.358;2024-02-21T04:09:49;25.08;;;8.05;;
54157;SDS011;40065;49.894;10.358;2024-02-21T04:14:51;19.58;;;7.55;;
54157;SDS011;40065;49.894;10.358;2024-02-21T04:19:53;24.00;;;7.10;;
54157;SDS011;40065;49.894;10.358;2024-02-21T04:25:07;25.13;;;7.82;;
54157;SDS011;40065;49.894;10.358;2024-02-21T04:30:09;26.17;;;7.75;;
54157;SDS011;40065;49.894;10.358;2024-02-21T04:35:12;20.40;;;7.75;;
54157;SDS011;40065;49.894;10.358;2024-02-21T04:40:14;22.13;;;7.75;;
54157;SDS011;40065;49.894;10.358;2024-02-21T04:45:16;23.00;;;7.70;;
54157;SDS011;40065;49.894;10.358;2024-02-21T04:50:18;23.40;;;7.90;;
54157;SDS011;40065;49.894;10.358;2024-02-21T04:55:20;19.63;;;7.65;;
54157;SDS011;40065;49.894;10.358;2024-02-21T05:00:22;22.38;;;7.97;;
54157;SDS011;40065;49.894;10.358;2024-02-21T05:05:24;18.52;;;7.47;;
54157;SDS011;40065;49.894;10.358;2024-02-21T05:10:26;21.50;;;7.75;;
54157;SDS011;40065;49.894;10.358;2024-02-21T05:15:28;20.42;;;7.13;;
54157;SDS011;40065;49.894;10.358;2024-02-21T05:20:30;24.48;;;8.80;;
54157;SDS011;40065;49.894;10.358;2024-02-21T05:25:32;24.83;;;7.95;;
54157;SDS011;40065;49.894;10.358;2024-02-21T05:30:34;21.25;;;7.55;;
54157;SDS011;40065;49.894;10.358;2024-02-21T05:35:36;20.55;;;7.70;;
54157;SDS011;40065;49.894;10.358;2024-02-21T05:40:38;21.92;;;7.93;;
54157;SDS011;40065;49.894;10.358;2024-02-21T05:45:40;21.73;;;8.10;;
54157;SDS011;40065;49.894;10.358;2024-02-21T05:50:42;27.08;;;8.63;;
54157;SDS011;40065;49.894;10.358;2024-02-21T05:55:44;23.75;;;8.98;;
54157;SDS011;40065;49.894;10.358;2024-02-21T06:00:46;26.50;;;9.75;;
54157;SDS011;40065;49.894;10.358;2024-02-21T06:05:48;20.25;;;9.13;;
54157;SDS011;40065;49.894;10.358;2024-02-21T06:10:50;30.73;;;10.30;;
54157;SDS011;40065;49.894;10.358;2024-02-21T06:15:55;27.48;;;10.20;;
54157;SDS011;40065;49.894;10.358;2024-02-21T06:20:57;21.77;;;8.48;;
54157;SDS011;40065;49.894;10.358;2024-02-21T06:25:59;24.50;;;8.77;;
54157;SDS011;40065;49.894;10.358;2024-02-21T06:31:01;25.73;;;8.95;;
54157;SDS011;40065;49.894;10.358;2024-02-21T06:36:03;26.02;;;9.52;;
54157;SDS011;40065;49.894;10.358;2024-02-21T06:41:06;25.38;;;9.77;;
54157;SDS011;40065;49.894;10.358;2024-02-21T06:46:25;25.33;;;9.90;;
54157;SDS011;40065;49.894;10.358;2024-02-21T06:51:28;22.30;;;8.65;;
54157;SDS011;40065;49.894;10.358;2024-02-21T06:56:30;22.38;;;8.68;;
54157;SDS011;40065;49.894;10.358;2024-02-21T07:01:31;24.10;;;8.75;;
54157;SDS011;40065;49.894;10.358;2024-02-21T07:06:33;19.73;;;7.65;;
54157;SDS011;40065;49.894;10.358;2024-02-21T07:11:36;26.10;;;8.27;;
54157;SDS011;40065;49.894;10.358;2024-02-21T07:16:38;17.48;;;8.05;;
54157;SDS011;40065;49.894;10.358;2024-02-21T07:21:40;23.50;;;8.15;;
54157;SDS011;40065;49.894;10.358;2024-02-21T07:26:45;23.23;;;8.00;;
54157;SDS011;40065;49.894;10.358;2024-02-21T07:31:48;20.73;;;7.72;;
54157;SDS011;40065;49.894;10.358;2024-02-21T07:36:50;17.23;;;7.25;;
54157;SDS011;40065;49.894;10.358;2024-02-21T07:41:52;20.10;;;8.05;;
54157;SDS011;40065;49.894;10.358;2024-02-21T07:46:54;16.30;;;6.97;;
54157;SDS011;40065;49.894;10.358;2024-02-21T07:51:56;21.80;;;7.55;;
54157;SDS011;40065;49.894;10.358;2024-02-21T07:56:58;17.23;;;6.57;;
54157;SDS011;40065;49.894;10.358;2024-02-21T08:01:59;17.55;;;6.57;;
54157;SDS011;40065;49.894;10.358;2024-02-21T08:07:01;19.52;;;6.25;;
54157;SDS011;40065;49.894;10.358;2024-02-21T08:12:05;18.80;;;6.80;;
54157;SDS011;40065;49.894;10.358;2024-02-21T08:17:07;20.27;;;6.72;;
54157;SDS011;40065;49.894;10.358;2024-02-21T08:22:09;18.90;;;6.43;;
54157;SDS011;40065;49.894;10.358;2024-02-21T08:27:11;18.40;;;6.30;;
54157;SDS011;40065;49.894;10.358;2024-02-21T08:32:13;20.58;;;6.70;;
54157;SDS011;40065;49.894;10.358;2024-02-21T08:37:15;12.48;;;4.95;;
54157;SDS011;40065;49.894;10.358;2024-02-21T08:42:20;13.23;;;4.63;;
54157;SDS011;40065;49.894;10.358;2024-02-21T08:47:22;16.92;;;5.22;;
54157;SDS011;40065;49.894;10.358;2024-02-21T08:52:24;13.25;;;4.35;;
54157;SDS011;40065;49.894;10.358;2024-02-21T08:57:26;12.10;;;4.80;;
54157;SDS011;40065;49.894;10.358;2024-02-21T09:02:28;10.07;;;4.20;;
54157;SDS011;40065;49.894;10.358;2024-02-21T09:07:30;12.23;;;4.15;;
54157;SDS011;40065;49.894;10.358;2024-02-21T09:12:32;14.73;;;3.88;;
54157;SDS011;40065;49.894;10.358;2024-02-21T09:17:34;7.00;;;3.17;;
54157;SDS011;40065;49.894;10.358;2024-02-21T09:22:36;13.93;;;3.55;;
54157;SDS011;40065;49.894;10.358;2024-02-21T09:27:39;8.43;;;3.30;;
54157;SDS011;40065;49.894;10.358;2024-02-21T09:32:41;11.77;;;3.65;;
54157;SDS011;40065;49.894;10.358;2024-02-21T09:37:43;8.55;;;2.92;;
54157;SDS011;40065;49.894;10.358;2024-02-21T09:42:44;13.23;;;3.15;;
54157;SDS011;40065;49.894;10.358;2024-02-21T09:53:03;9.23;;;3.20;;
54157;SDS011;40065;49.894;10.358;2024-02-21T10:03:10;9.20;;;3.63;;
54157;SDS011;40065;49.894;10.358;2024-02-21T10:08:13;11.05;;;3.80;;
54157;SDS011;40065;49.894;10.358;2024-02-21T10:13:24;8.32;;;3.20;;
54157;SDS011;40065;49.894;10.358;2024-02-21T10:18:30;10.82;;;3.63;;
54157;SDS011;40065;49.894;10.358;2024-02-21T10:23:41;8.40;;;2.83;;
54157;SDS011;40065;49.894;10.358;2024-02-21T10:28:47;8.23;;;3.13;;
54157;SDS011;40065;49.894;10.358;2024-02-21T10:33:53;8.45;;;3.22;;
54157;SDS011;40065;49.894;10.358;2024-02-21T10:39:05;8.45;;;2.85;;
54157;SDS011;40065;49.894;10.358;2024-02-21T10:44:07;7.57;;;2.75;;
54157;SDS011;40065;49.894;10.358;2024-02-21T10:49:14;8.70;;;2.92;;
54157;SDS011;40065;49.894;10.358;2024-02-21T10:54:36;9.38;;;3.28;;
54157;SDS011;40065;49.894;10.358;2024-02-21T10:59:47;9.68;;;2.55;;
54157;SDS011;40065;49.894;10.358;2024-02-21T11:04:49;14.40;;;2.88;;
54157;SDS011;40065;49.894;10.358;2024-02-21T11:09:54;9.10;;;2.90;;
54157;SDS011;40065;49.894;10.358;2024-02-21T11:15:06;9.93;;;2.38;;
54157;SDS011;40065;49.894;10.358;2024-02-21T11:20:12;9.73;;;2.53;;
54157;SDS011;40065;49.894;10.358;2024-02-21T11:25:21;11.85;;;2.90;;
54157;SDS011;40065;49.894;10.358;2024-02-21T11:30:26;14.45;;;2.40;;
54157;SDS011;40065;49.894;10.358;2024-02-21T11:35:33;10.63;;;2.63;;
54157;SDS011;40065;49.894;10.358;2024-02-21T11:40:38;11.48;;;2.50;;
54157;SDS011;40065;49.894;10.358;2024-02-21T11:45:41;6.47;;;2.53;;
54157;SDS011;40065;49.894;10.358;2024-02-21T11:50:52;9.63;;;2.63;;
54157;SDS011;40065;49.894;10.358;2024-02-21T11:55:54;11.20;;;2.20;;
54157;SDS011;40065;49.894;10.358;2024-02-21T12:00:58;11.80;;;2.60;;
54157;SDS011;40065;49.894;10.358;2024-02-21T12:06:01;8.02;;;2.30;;
54157;SDS011;40065;49.894;10.358;2024-02-21T12:11:23;9.40;;;2.22;;
54157;SDS011;40065;49.894;10.358;2024-02-21T12:16:26;8.30;;;2.50;;
54157;SDS011;40065;49.894;10.358;2024-02-21T12:21:30;10.02;;;2.58;;
54157;SDS011;40065;49.894;10.358;2024-02-21T12:26:34;8.02;;;2.35;;
54157;SDS011;40065;49.894;10.358;2024-02-21T12:31:37;6.53;;;2.30;;
54157;SDS011;40065;49.894;10.358;2024-02-21T12:36:46;7.10;;;2.00;;
54157;SDS011;40065;49.894;10.358;2024-02-21T12:41:48;7.85;;;2.30;;
54157;SDS011;40065;49.894;10.358;2024-02-21T12:46:50;6.25;;;2.00;;
54157;SDS011;40065;49.894;10.358;2024-02-21T12:51:53;7.57;;;1.83;;
54157;SDS011;40065;49.894;10.358;2024-02-21T12:56:55;5.53;;;2.00;;
54157;SDS011;40065;49.894;10.358;2024-02-21T13:01:57;6.53;;;2.50;;
54157;SDS011;40065;49.894;10.358;2024-02-21T13:06:59;9.60;;;2.25;;
54157;SDS011;40065;49.894;10.358;2024-02-21T13:12:01;9.10;;;2.35;;
54157;SDS011;40065;49.894;10.358;2024-02-21T13:17:04;6.53;;;1.90;;
54157;SDS011;40065;49.894;10.358;2024-02-21T13:22:06;5.82;;;1.83;;
54157;SDS011;40065;49.894;10.358;2024-02-21T13:27:08;8.15;;;2.13;;
54157;SDS011;40065;49.894;10.358;2024-02-21T13:32:10;7.68;;;2.00;;
54157;SDS011;40065;49.894;10.358;2024-02-21T13:37:12;8.60;;;2.63;;
54157;SDS011;40065;49.894;10.358;2024-02-21T13:42:15;7.88;;;2.10;;
54157;SDS011;40065;49.894;10.358;2024-02-21T13:47:17;6.78;;;1.70;;
54157;SDS011;40065;49.894;10.358;2024-02-21T13:52:19;8.75;;;1.65;;
54157;SDS011;40065;49.894;10.358;2024-02-21T13:57:23;7.93;;;1.77;;
54157;SDS011;40065;49.894;10.358;2024-02-21T14:02:26;5.68;;;1.60;;
54157;SDS011;40065;49.894;10.358;2024-02-21T14:07:28;15.05;;;2.15;;
54157;SDS011;40065;49.894;10.358;2024-02-21T14:12:30;6.57;;;1.75;;
54157;SDS011;40065;49.894;10.358;2024-02-21T14:17:33;7.80;;;2.15;;
54157;SDS011;40065;49.894;10.358;2024-02-21T14:22:35;8.73;;;1.80;;
54157;SDS011;40065;49.894;10.358;2024-02-21T14:27:39;5.75;;;1.50;;
54157;SDS011;40065;49.894;10.358;2024-02-21T14:32:41;4.20;;;1.60;;
54157;SDS011;40065;49.894;10.358;2024-02-21T14:37:46;6.82;;;1.58;;
54157;SDS011;40065;49.894;10.358;2024-02-21T14:42:50;7.50;;;1.80;;
54157;SDS011;40065;49.894;10.358;2024-02-21T14:47:53;8.50;;;2.03;;
54157;SDS011;40065;49.894;10.358;2024-02-21T14:52:56;7.03;;;1.42;;
54157;SDS011;40065;49.894;10.358;2024-02-21T14:57:58;7.03;;;1.60;;
54157;SDS011;40065;49.894;10.358;2024-02-21T15:03:01;6.88;;;1.73;;
54157;SDS011;40065;49.894;10.358;2024-02-21T15:08:04;4.80;;;1.50;;
54157;SDS011;40065;49.894;10.358;2024-02-21T15:13:06;8.80;;;2.13;;
54157;SDS011;40065;49.894;10.358;2024-02-21T15:18:09;5.90;;;1.40;;
54157;SDS011;40065;49.894;10.358;2024-02-21T15:23:11;6.15;;;1.77;;
54157;SDS011;40065;49.894;10.358;2024-02-21T15:28:13;5.80;;;1.58;;
54157;SDS011;40065;49.894;10.358;2024-02-21T15:33:15;5.25;;;1.60;;
54157;SDS011;40065;49.894;10.358;2024-02-21T15:38:17;8.75;;;1.70;;
54157;SDS011;40065;49.894;10.358;2024-02-21T15:43:20;6.53;;;1.90;;
54157;SDS011;40065;49.894;10.358;2024-02-21T15:48:22;10.23;;;1.70;;
54157;SDS011;40065;49.894;10.358;2024-02-21T15:53:26;8.82;;;1.58;;
54157;SDS011;40065;49.894;10.358;2024-02-21T15:58:28;7.72;;;1.85;;
54157;SDS011;40065;49.894;10.358;2024-02-21T16:03:30;11.93;;;4.43;;
54157;SDS011;40065;49.894;10.358;2024-02-21T16:08:33;8.93;;;1.83;;
54157;SDS011;40065;49.894;10.358;2024-02-21T16:13:37;9.98;;;2.90;;
54157;SDS011;40065;49.894;10.358;2024-02-21T16:18:39;14.98;;;5.88;;
54157;SDS011;40065;49.894;10.358;2024-02-21T16:23:41;9.60;;;1.92;;
54157;SDS011;40065;49.894;10.358;2024-02-21T16:28:43;6.78;;;1.92;;
54157;SDS011;40065;49.894;10.358;2024-02-21T16:33:45;7.80;;;3.10;;
54157;SDS011;40065;49.894;10.358;2024-02-21T16:38:47;8.35;;;1.60;;
54157;SDS011;40065;49.894;10.358;2024-02-21T16:43:50;7.00;;;1.70;;
54157;SDS011;40065;49.894;10.358;2024-02-21T16:48:54;4.10;;;1.75;;
54157;SDS011;40065;49.894;10.358;2024-02-21T16:53:55;8.35;;;1.85;;
54157;SDS011;40065;49.894;10.358;2024-02-21T16:58:57;6.20;;;1.58;;
54157;SDS011;40065;49.894;10.358;2024-02-21T17:03:59;22.38;;;7.30;;
54157;SDS011;40065;49.894;10.358;2024-02-21T17:09:01;9.05;;;4.65;;
54157;SDS011;40065;49.894;10.358;2024-02-21T17:14:04;8.70;;;3.28;;
54157;SDS011;40065;49.894;10.358;2024-02-21T17:19:06;8.23;;;3.35;;
54157;SDS011;40065;49.894;10.358;2024-02-21T17:24:08;5.60;;;1.50;;
54157;SDS011;40065;49.894;10.358;2024-02-21T17:29:10;8.40;;;3.00;;
54157;SDS011;40065;49.894;10.358;2024-02-21T17:34:12;7.90;;;3.00;;
54157;SDS011;40065;49.894;10.358;2024-02-21T17:39:14;8.80;;;3.88;;
54157;SDS011;40065;49.894;10.358;2024-02-21T17:44:18;4.93;;;2.45;;
54157;SDS011;40065;49.894;10.358;2024-02-21T17:49:21;6.63;;;3.05;;
54157;SDS011;40065;49.894;10.358;2024-02-21T17:54:24;6.75;;;2.10;;
54157;SDS011;40065;49.894;10.358;2024-02-21T17:59:25;31.45;;;14.38;;
54157;SDS011;40065;49.894;10.358;2024-02-21T18:04:27;26.83;;;13.65;;
54157;SDS011;40065;49.894;10.358;2024-02-21T18:09:29;18.60;;;11.02;;
54157;SDS011;40065;49.894;10.358;2024-02-21T18:14:32;25.60;;;11.30;;
54157;SDS011;40065;49.894;10.358;2024-02-21T18:19:34;21.30;;;9.85;;
54157;SDS011;40065;49.894;10.358;2024-02-21T18:24:36;21.65;;;10.40;;
54157;SDS011;40065;49.894;10.358;2024-02-21T18:29:38;20.13;;;11.15;;
54157;SDS011;40065;49.894;10.358;2024-02-21T18:34:42;12.02;;;4.68;;
54157;SDS011;40065;49.894;10.358;2024-02-21T18:39:44;7.65;;;4.00;;
54157;SDS011;40065;49.894;10.358;2024-02-21T18:44:46;6.38;;;2.60;;
54157;SDS011;40065;49.894;10.358;2024-02-21T18:54:53;5.38;;;1.77;;
54157;SDS011;40065;49.894;10.358;2024-02-21T18:59:55;5.50;;;1.63;;
54157;SDS011;40065;49.894;10.358;2024-02-21T19:04:57;6.10;;;1.30;;
54157;SDS011;40065;49.894;10.358;2024-02-21T19:09:59;6.50;;;1.60;;
54157;SDS011;40065;49.894;10.358;2024-02-21T19:15:02;4.07;;;1.40;;
54157;SDS011;40065;49.894;10.358;2024-02-21T19:25:08;4.05;;;1.38;;
54157;SDS011;40065;49.894;10.358;2024-02-21T19:30:18;3.38;;;1.20;;
54157;SDS011;40065;49.894;10.358;2024-02-21T19:35:22;4.82;;;1.38;;
54157;SDS011;40065;49.894;10.358;2024-02-21T19:40:24;4.93;;;1.40;;
54157;SDS011;40065;49.894;10.358;2024-02-21T19:45:27;3.00;;;1.27;;
54157;SDS011;40065;49.894;10.358;2024-02-21T19:50:29;3.45;;;1.60;;
54157;SDS011;40065;49.894;10.358;2024-02-21T19:55:34;4.55;;;1.48;;
54157;SDS011;40065;49.894;10.358;2024-02-21T20:00:36;4.32;;;1.50;;
54157;SDS011;40065;49.894;10.358;2024-02-21T20:05:39;4.47;;;2.20;;
54157;SDS011;40065;49.894;10.358;2024-02-21T20:10:44;3.85;;;1.95;;
54157;SDS011;40065;49.894;10.358;2024-02-21T20:15:46;5.93;;;2.08;;
54157;SDS011;40065;49.894;10.358;2024-02-21T20:20:48;4.97;;;1.73;;
54157;SDS011;40065;49.894;10.358;2024-02-21T20:25:50;3.85;;;1.40;;
54157;SDS011;40065;49.894;10.358;2024-02-21T20:30:56;5.20;;;1.63;;
54157;SDS011;40065;49.894;10.358;2024-02-21T20:35:58;4.57;;;1.70;;
54157;SDS011;40065;49.894;10.358;2024-02-21T20:41:00;4.22;;;1.90;;
54157;SDS011;40065;49.894;10.358;2024-02-21T20:46:03;4.78;;;1.95;;
54157;SDS011;40065;49.894;10.358;2024-02-21T20:51:05;4.20;;;1.73;;
54157;SDS011;40065;49.894;10.358;2024-02-21T20:56:08;4.32;;;1.85;;
54157;SDS011;40065;49.894;10.358;2024-02-21T21:06:14;3.63;;;1.63;;
54157;SDS011;40065;49.894;10.358;2024-02-21T21:11:16;4.25;;;1.60;;
54157;SDS011;40065;49.894;10.358;2024-02-21T21:16:22;3.03;;;1.60;;
54157;SDS011;40065;49.894;10.358;2024-02-21T21:21:24;8.80;;;2.20;;
54157;SDS011;40065;49.894;10.358;2024-02-21T21:26:26;8.20;;;2.03;;
54157;SDS011;40065;49.894;10.358;2024-02-21T21:31:28;3.85;;;1.95;;
54157;SDS011;40065;49.894;10.358;2024-02-21T21:36:30;4.85;;;1.90;;
54157;SDS011;40065;49.894;10.358;2024-02-21T21:41:32;3.83;;;1.73;;
54157;SDS011;40065;49.894;10.358;2024-02-21T21:46:34;4.95;;;1.70;;
54157;SDS011;40065;49.894;10.358;2024-02-21T21:51:36;3.20;;;1.40;;
54157;SDS011;40065;49.894;10.358;2024-02-21T21:56:38;2.15;;;0.95;;
54157;SDS011;40065;49.894;10.358;2024-02-21T22:01:40;3.30;;;1.40;;
54157;SDS011;40065;49.894;10.358;2024-02-21T22:06:42;1.85;;;0.98;;
54157;SDS011;40065;49.894;10.358;2024-02-21T22:11:44;2.97;;;1.10;;
54157;SDS011;40065;49.894;10.358;2024-02-21T22:16:47;3.42;;;1.23;;
54157;SDS011;40065;49.894;10.358;2024-02-21T22:21:49;2.90;;;1.23;;
54157;SDS011;40065;49.894;10.358;2024-02-21T22:26:50;3.35;;;1.00;;
54157;SDS011;40065;49.894;10.358;2024-02-21T22:31:52;3.88;;;1.15;;
54157;SDS011;40065;49.894;10.358;2024-02-21T22:36:54;3.67;;;1.20;;
54157;SDS011;40065;49.894;10.358;2024-02-21T22:41:56;3.15;;;1.20;;
54157;SDS011;40065;49.894;10.358;2024-02-21T22:47:00;2.90;;;1.33;;
54157;SDS011;40065;49.894;10.358;2024-02-21T22:52:02;2.88;;;1.20;;
54157;SDS011;40065;49.894;10.358;2024-02-21T22:57:04;6.72;;;1.38;;
54157;SDS011;40065;49.894;10.358;2024-02-21T23:02:08;4.97;;;1.05;;
54157;SDS011;40065;49.894;10.358;2024-02-21T23:07:10;3.25;;;1.00;;
54157;SDS011;40065;49.894;10.358;2024-02-21T23:12:12;1.98;;;0.90;;
54157;SDS011;40065;49.894;10.358;2024-02-21T23:17:19;1.98;;;0.90;;
54157;SDS011;40065;49.894;10.358;2024-02-21T23:22:21;4.47;;;0.90;;
54157;SDS011;40065;49.894;10.358;2024-02-21T23:27:23;1.58;;;0.80;;
54157;SDS011;40065;49.894;10.358;2024-02-21T23:32:25;1.45;;;0.77;;
54157;SDS011;40065;49.894;10.358;2024-02-21T23:37:27;1.92;;;0.60;;
54157;SDS011;40065;49.894;10.358;2024-02-21T23:42:30;4.05;;;0.93;;
54157;SDS011;40065;49.894;10.358;2024-02-21T23:47:33;3.15;;;0.90;;
54157;SDS011;40065;49.894;10.358;2024-02-21T23:52:34;3.33;;;0.90;;
54157;SDS011;40065;49.894;10.358;2024-02-21T23:57:36;1.67;;;0.82;;
